sensor_id;sensor_type;location;lat;lon;timestamp;noise_LAeq;noise_LA_min;noise_LA_max;noise_LA01;noise_LA95
76382;Laerm;65202;52.520;10.528;2022-12-07T00:01:46;38.31;34.92;51.90;;
76382;Laerm;65202;52.520;10.528;2022-12-07T00:04:16;36.89;33.96;60.56;;
76382;Laerm;65202;52.520;10.528;2022-12-07T00:06:47;37.95;34.62;46.78;;
76382;Laerm;65202;52.520;10.528;2022-12-07T00:09:17;37.71;34.44;60.74;;
76382;Laerm;65202;52.520;10.528;2022-12-07T00:11:50;37.74;34.99;52.97;;
76382;Laerm;65202;52.520;10.528;2022-12-07T00:14:19;37.61;33.68;49.03;;
76382;Laerm;65202;52.520;10.528;2022-12-07T00:16:50;37.09;34.56;44.83;;
76382;Laerm;65202;52.520;10.528;2022-12-07T00:19:18;36.80;34.22;45.41;;
76382;Laerm;65202;52.520;10.528;2022-12-07T00:21:45;36.59;34.42;43.56;;
76382;Laerm;65202;52.520;10.528;2022-12-07T00:24:12;37.78;34.91;61.44;;
76382;Laerm;65202;52.520;10.528;2022-12-07T00:26:41;37.95;34.43;60.38;;
76382;Laerm;65202;52.520;10.528;2022-12-07T00:29:17;37.81;34.42;55.48;;
76382;Laerm;65202;52.520;10.528;2022-12-07T00:31:45;37.44;34.34;64.18;;
76382;Laerm;65202;52.520;10.528;2022-12-07T00:34:20;36.74;34.45;49.28;;
76382;Laerm;65202;52.520;10.528;2022-12-07T00:36:48;36.73;34.50;43.58;;
76382;Laerm;65202;52.520;10.528;2022-12-07T00:39:16;38.41;34.47;52.01;;
76382;Laerm;65202;52.520;10.528;2022-12-07T00:41:44;37.31;34.50;42.96;;
76382;Laerm;65202;52.520;10.528;2022-12-07T00:44:11;36.73;34.61;42.72;;
76382;Laerm;65202;52.520;10.528;2022-12-07T00:46:39;38.22;34.82;46.09;;
76382;Laerm;65202;52.520;10.528;2022-12-07T00:49:06;38.27;35.17;58.74;;
76382;Laerm;65202;52.520;10.528;2022-12-07T00:51:33;38.00;35.14;47.92;;
76382;Laerm;65202;52.520;10.528;2022-12-07T00:54:00;38.51;35.17;51.87;;
76382;Laerm;65202;52.520;10.528;2022-12-07T00:56:28;37.79;34.89;56.22;;
76382;Laerm;65202;52.520;10.528;2022-12-07T00:59:02;37.75;35.09;48.47;;
76382;Laerm;65202;52.520;10.528;2022-12-07T01:01:33;36.81;34.80;43.51;;
76382;Laerm;65202;52.520;10.528;2022-12-07T01:04:02;38.31;35.16;49.09;;
76382;Laerm;65202;52.520;10.528;2022-12-07T01:06:30;37.91;34.93;44.21;;
76382;Laerm;65202;52.520;10.528;2022-12-07T01:08:58;42.04;36.67;50.36;;
76382;Laerm;65202;52.520;10.528;2022-12-07T01:11:28;41.71;37.14;65.69;;
76382;Laerm;65202;52.520;10.528;2022-12-07T01:13:58;43.33;36.80;64.87;;
76382;Laerm;65202;52.520;10.528;2022-12-07T01:16:29;42.72;35.83;67.36;;
76382;Laerm;65202;52.520;10.528;2022-12-07T01:18:59;40.96;35.47;63.59;;
76382;Laerm;65202;52.520;10.528;2022-12-07T01:21:33;41.69;35.32;65.61;;
76382;Laerm;65202;52.520;10.528;2022-12-07T01:24:06;40.74;34.99;66.37;;
76382;Laerm;65202;52.520;10.528;2022-12-07T01:26:34;40.93;34.98;67.35;;
76382;Laerm;65202;52.520;10.528;2022-12-07T01:29:02;45.20;37.78;68.04;;
76382;Laerm;65202;52.520;10.528;2022-12-07T01:31:29;41.41;35.31;65.97;;
76382;Laerm;65202;52.520;10.528;2022-12-07T01:33:59;41.37;35.45;66.80;;
76382;Laerm;65202;52.520;10.528;2022-12-07T01:36:33;39.85;34.51;65.64;;
76382;Laerm;65202;52.520;10.528;2022-12-07T01:39:04;38.69;34.71;63.69;;
76382;Laerm;65202;52.520;10.528;2022-12-07T01:41:39;38.92;34.68;61.89;;
76382;Laerm;65202;52.520;10.528;2022-12-07T01:46:57;37.52;34.49;57.42;;
76382;Laerm;65202;52.520;10.528;2022-12-07T01:49:38;37.31;34.74;54.98;;
76382;Laerm;65202;52.520;10.528;2022-12-07T01:52:31;37.46;34.47;58.19;;
76382;Laerm;65202;52.520;10.528;2022-12-07T01:55:08;37.88;34.91;55.45;;
76382;Laerm;65202;52.520;10.528;2022-12-07T01:57:43;39.06;35.10;64.13;;
76382;Laerm;65202;52.520;10.528;2022-12-07T02:00:13;40.32;35.94;56.43;;
76382;Laerm;65202;52.520;10.528;2022-12-07T02:02:49;37.89;34.97;56.25;;
76382;Laerm;65202;52.520;10.528;2022-12-07T02:05:19;38.18;35.29;51.30;;
76382;Laerm;65202;52.520;10.528;2022-12-07T02:07:48;37.10;34.55;54.58;;
76382;Laerm;65202;52.520;10.528;2022-12-07T02:10:25;38.96;35.08;59.01;;
76382;Laerm;65202;52.520;10.528;2022-12-07T02:13:20;37.99;34.62;63.25;;
76382;Laerm;65202;52.520;10.528;2022-12-07T02:22:53;37.64;34.82;56.55;;
76382;Laerm;65202;52.520;10.528;2022-12-07T02:28:34;41.37;33.94;56.16;;
76382;Laerm;65202;52.520;10.528;2022-12-07T02:31:10;37.66;34.59;60.80;;
76382;Laerm;65202;52.520;10.528;2022-12-07T02:33:51;39.43;35.16;67.35;;
76382;Laerm;65202;52.520;10.528;2022-12-07T02:36:30;40.25;36.10;60.90;;
76382;Laerm;65202;52.520;10.528;2022-12-07T02:39:18;39.68;35.73;58.61;;
76382;Laerm;65202;52.520;10.528;2022-12-07T02:42:02;38.49;35.61;51.93;;
76382;Laerm;65202;52.520;10.528;2022-12-07T02:44:32;38.17;34.68;48.61;;
76382;Laerm;65202;52.520;10.528;2022-12-07T02:47:07;38.00;34.97;49.07;;
76382;Laerm;65202;52.520;10.528;2022-12-07T02:49:38;38.68;35.08;48.52;;
76382;Laerm;65202;52.520;10.528;2022-12-07T02:52:06;38.44;34.77;63.25;;
76382;Laerm;65202;52.520;10.528;2022-12-07T02:54:34;37.73;34.52;55.44;;
76382;Laerm;65202;52.520;10.528;2022-12-07T02:57:23;38.22;35.11;47.78;;
76382;Laerm;65202;52.520;10.528;2022-12-07T03:00:06;38.87;35.53;60.07;;
76382;Laerm;65202;52.520;10.528;2022-12-07T03:02:53;37.79;34.64;55.24;;
76382;Laerm;65202;52.520;10.528;2022-12-07T03:11:51;37.87;35.07;56.75;;
76382;Laerm;65202;52.520;10.528;2022-12-07T03:14:34;40.30;36.04;57.80;;
76382;Laerm;65202;52.520;10.528;2022-12-07T03:17:18;38.64;35.76;56.99;;
76382;Laerm;65202;52.520;10.528;2022-12-07T03:19:50;40.02;35.95;45.93;;
76382;Laerm;65202;52.520;10.528;2022-12-07T03:22:22;40.45;35.44;59.00;;
76382;Laerm;65202;52.520;10.528;2022-12-07T03:24:57;39.06;35.13;45.20;;
76382;Laerm;65202;52.520;10.528;2022-12-07T03:27:34;39.18;35.69;53.19;;
76382;Laerm;65202;52.520;10.528;2022-12-07T03:30:15;40.87;37.52;51.56;;
76382;Laerm;65202;52.520;10.528;2022-12-07T03:35:34;41.66;37.42;63.00;;
76382;Laerm;65202;52.520;10.528;2022-12-07T03:38:13;45.97;36.48;65.50;;
76382;Laerm;65202;52.520;10.528;2022-12-07T03:40:54;42.81;37.26;58.03;;
76382;Laerm;65202;52.520;10.528;2022-12-07T03:43:25;39.85;36.40;49.88;;
76382;Laerm;65202;52.520;10.528;2022-12-07T03:46:06;38.60;35.64;44.46;;
76382;Laerm;65202;52.520;10.528;2022-12-07T03:48:54;42.23;35.52;49.42;;
76382;Laerm;65202;52.520;10.528;2022-12-07T03:54:35;39.02;36.08;46.34;;
76382;Laerm;65202;52.520;10.528;2022-12-07T03:57:06;39.92;36.13;58.15;;
76382;Laerm;65202;52.520;10.528;2022-12-07T03:59:37;40.43;36.71;47.33;;
76382;Laerm;65202;52.520;10.528;2022-12-07T04:02:07;39.85;36.34;56.99;;
76382;Laerm;65202;52.520;10.528;2022-12-07T04:04:35;47.21;37.34;64.27;;
76382;Laerm;65202;52.520;10.528;2022-12-07T04:07:02;40.71;36.53;48.14;;
76382;Laerm;65202;52.520;10.528;2022-12-07T04:09:29;41.20;37.55;46.57;;
76382;Laerm;65202;52.520;10.528;2022-12-07T04:11:57;41.51;37.21;61.96;;
76382;Laerm;65202;52.520;10.528;2022-12-07T04:14:24;41.44;37.80;47.87;;
76382;Laerm;65202;52.520;10.528;2022-12-07T04:16:55;40.48;36.75;47.80;;
76382;Laerm;65202;52.520;10.528;2022-12-07T04:19:29;41.45;37.43;50.46;;
76382;Laerm;65202;52.520;10.528;2022-12-07T04:21:58;39.78;36.73;46.61;;
76382;Laerm;65202;52.520;10.528;2022-12-07T04:24:27;41.13;37.30;50.39;;
76382;Laerm;65202;52.520;10.528;2022-12-07T04:26:54;41.45;38.26;46.14;;
76382;Laerm;65202;52.520;10.528;2022-12-07T04:29:22;42.28;38.09;49.17;;
76382;Laerm;65202;52.520;10.528;2022-12-07T04:31:50;40.26;37.02;45.67;;
76382;Laerm;65202;52.520;10.528;2022-12-07T04:34:18;43.73;37.91;54.53;;
76382;Laerm;65202;52.520;10.528;2022-12-07T04:36:47;41.59;37.04;54.94;;
76382;Laerm;65202;52.520;10.528;2022-12-07T04:39:35;43.28;39.61;49.82;;
76382;Laerm;65202;52.520;10.528;2022-12-07T04:42:02;45.08;40.51;50.83;;
76382;Laerm;65202;52.520;10.528;2022-12-07T04:44:30;42.14;38.77;52.07;;
76382;Laerm;65202;52.520;10.528;2022-12-07T04:46:58;40.99;37.38;45.19;;
76382;Laerm;65202;52.520;10.528;2022-12-07T04:49:25;41.01;38.16;48.11;;
76382;Laerm;65202;52.520;10.528;2022-12-07T04:51:53;41.06;37.55;45.23;;
76382;Laerm;65202;52.520;10.528;2022-12-07T04:54:20;42.17;37.65;47.53;;
76382;Laerm;65202;52.520;10.528;2022-12-07T04:56:47;40.89;38.07;47.33;;
76382;Laerm;65202;52.520;10.528;2022-12-07T04:59:16;41.83;37.33;46.47;;
76382;Laerm;65202;52.520;10.528;2022-12-07T05:01:44;41.57;38.10;47.73;;
76382;Laerm;65202;52.520;10.528;2022-12-07T05:04:11;42.04;38.44;50.45;;
76382;Laerm;65202;52.520;10.528;2022-12-07T05:06:39;42.38;39.12;47.49;;
76382;Laerm;65202;52.520;10.528;2022-12-07T05:09:06;47.76;38.58;64.91;;
76382;Laerm;65202;52.520;10.528;2022-12-07T05:11:34;42.04;38.72;46.16;;
76382;Laerm;65202;52.520;10.528;2022-12-07T05:14:17;42.06;38.85;46.52;;
76382;Laerm;65202;52.520;10.528;2022-12-07T05:16:49;41.79;38.46;45.55;;
76382;Laerm;65202;52.520;10.528;2022-12-07T05:19:18;40.89;37.83;46.82;;
76382;Laerm;65202;52.520;10.528;2022-12-07T05:21:46;42.16;38.09;49.09;;
76382;Laerm;65202;52.520;10.528;2022-12-07T05:24:15;42.25;38.44;50.29;;
76382;Laerm;65202;52.520;10.528;2022-12-07T05:26:43;42.84;39.39;49.80;;
76382;Laerm;65202;52.520;10.528;2022-12-07T05:29:16;44.91;39.59;60.39;;
76382;Laerm;65202;52.520;10.528;2022-12-07T05:31:44;45.20;39.08;61.63;;
76382;Laerm;65202;52.520;10.528;2022-12-07T05:34:11;46.18;39.13;61.69;;
76382;Laerm;65202;52.520;10.528;2022-12-07T05:36:39;42.19;38.24;47.83;;
76382;Laerm;65202;52.520;10.528;2022-12-07T05:39:07;42.12;39.00;46.59;;
76382;Laerm;65202;52.520;10.528;2022-12-07T05:41:34;42.95;39.40;51.75;;
76382;Laerm;65202;52.520;10.528;2022-12-07T05:44:20;44.76;39.08;61.76;;
76382;Laerm;65202;52.520;10.528;2022-12-07T05:46:47;43.08;39.76;49.05;;
76382;Laerm;65202;52.520;10.528;2022-12-07T05:49:15;45.69;39.39;61.93;;
76382;Laerm;65202;52.520;10.528;2022-12-07T05:51:42;41.88;38.69;47.80;;
76382;Laerm;65202;52.520;10.528;2022-12-07T05:54:09;42.64;38.34;48.15;;
76382;Laerm;65202;52.520;10.528;2022-12-07T05:56:36;41.52;38.54;48.17;;
76382;Laerm;65202;52.520;10.528;2022-12-07T05:59:04;41.59;38.06;49.66;;
76382;Laerm;65202;52.520;10.528;2022-12-07T06:01:56;42.60;38.65;48.12;;
76382;Laerm;65202;52.520;10.528;2022-12-07T06:04:26;45.66;39.26;57.62;;
76382;Laerm;65202;52.520;10.528;2022-12-07T06:06:53;49.55;39.00;69.15;;
76382;Laerm;65202;52.520;10.528;2022-12-07T06:09:23;46.50;39.74;62.47;;
76382;Laerm;65202;52.520;10.528;2022-12-07T06:11:50;42.83;38.53;53.30;;
76382;Laerm;65202;52.520;10.528;2022-12-07T06:14:37;46.62;39.49;59.94;;
76382;Laerm;65202;52.520;10.528;2022-12-07T06:17:05;54.83;39.33;67.84;;
76382;Laerm;65202;52.520;10.528;2022-12-07T06:19:33;48.14;39.24;64.20;;
76382;Laerm;65202;52.520;10.528;2022-12-07T06:22:01;49.81;40.07;63.85;;
76382;Laerm;65202;52.520;10.528;2022-12-07T06:24:28;42.96;39.23;55.90;;
76382;Laerm;65202;52.520;10.528;2022-12-07T06:26:55;43.56;38.95;55.51;;
76382;Laerm;65202;52.520;10.528;2022-12-07T06:29:23;49.53;39.07;67.12;;
76382;Laerm;65202;52.520;10.528;2022-12-07T06:31:50;46.14;39.53;61.39;;
76382;Laerm;65202;52.520;10.528;2022-12-07T06:34:22;48.13;39.04;67.01;;
76382;Laerm;65202;52.520;10.528;2022-12-07T06:36:51;43.15;38.98;60.51;;
76382;Laerm;65202;52.520;10.528;2022-12-07T06:39:28;46.48;39.51;61.30;;
76382;Laerm;65202;52.520;10.528;2022-12-07T06:41:56;42.33;39.25;48.14;;
76382;Laerm;65202;52.520;10.528;2022-12-07T06:44:24;42.75;38.95;52.20;;
76382;Laerm;65202;52.520;10.528;2022-12-07T06:46:52;43.47;38.99;53.80;;
76382;Laerm;65202;52.520;10.528;2022-12-07T06:49:39;43.63;39.29;53.22;;
76382;Laerm;65202;52.520;10.528;2022-12-07T06:52:06;44.24;39.24;59.69;;
76382;Laerm;65202;52.520;10.528;2022-12-07T06:54:34;43.14;38.61;67.78;;
76382;Laerm;65202;52.520;10.528;2022-12-07T06:57:01;44.10;39.67;57.41;;
76382;Laerm;65202;52.520;10.528;2022-12-07T06:59:28;47.68;40.06;63.21;;
76382;Laerm;65202;52.520;10.528;2022-12-07T07:01:55;44.11;39.04;62.02;;
76382;Laerm;65202;52.520;10.528;2022-12-07T07:04:22;45.21;39.88;63.53;;
76382;Laerm;65202;52.520;10.528;2022-12-07T07:06:50;48.04;39.72;65.15;;
76382;Laerm;65202;52.520;10.528;2022-12-07T07:09:25;47.28;39.31;67.38;;
76382;Laerm;65202;52.520;10.528;2022-12-07T07:11:53;44.08;39.09;55.42;;
76382;Laerm;65202;52.520;10.528;2022-12-07T07:14:20;49.18;39.32;67.59;;
76382;Laerm;65202;52.520;10.528;2022-12-07T07:16:48;45.77;38.53;58.87;;
76382;Laerm;65202;52.520;10.528;2022-12-07T07:19:15;51.18;40.59;69.10;;
76382;Laerm;65202;52.520;10.528;2022-12-07T07:21:42;50.83;40.02;68.56;;
76382;Laerm;65202;52.520;10.528;2022-12-07T07:24:09;43.80;39.77;54.55;;
76382;Laerm;65202;52.520;10.528;2022-12-07T07:26:37;46.69;39.67;62.67;;
76382;Laerm;65202;52.520;10.528;2022-12-07T07:29:04;42.68;38.28;55.93;;
76382;Laerm;65202;52.520;10.528;2022-12-07T07:31:31;44.80;39.28;55.92;;
76382;Laerm;65202;52.520;10.528;2022-12-07T07:33:58;44.36;38.45;60.60;;
76382;Laerm;65202;52.520;10.528;2022-12-07T07:36:25;43.22;39.18;51.30;;
76382;Laerm;65202;52.520;10.528;2022-12-07T07:38:53;42.02;38.11;51.69;;
76382;Laerm;65202;52.520;10.528;2022-12-07T07:41:20;44.24;38.31;60.68;;
76382;Laerm;65202;52.520;10.528;2022-12-07T07:43:47;46.56;39.16;68.59;;
76382;Laerm;65202;52.520;10.528;2022-12-07T07:46:14;46.03;39.10;61.22;;
76382;Laerm;65202;52.520;10.528;2022-12-07T07:48:41;45.22;39.79;62.90;;
76382;Laerm;65202;52.520;10.528;2022-12-07T07:51:08;46.60;39.30;61.77;;
76382;Laerm;65202;52.520;10.528;2022-12-07T07:53:36;45.88;39.18;61.23;;
76382;Laerm;65202;52.520;10.528;2022-12-07T07:56:03;46.08;39.05;64.11;;
76382;Laerm;65202;52.520;10.528;2022-12-07T07:58:30;47.49;38.31;65.46;;
76382;Laerm;65202;52.520;10.528;2022-12-07T08:01:04;49.11;38.90;68.90;;
76382;Laerm;65202;52.520;10.528;2022-12-07T08:03:31;43.06;39.11;57.14;;
76382;Laerm;65202;52.520;10.528;2022-12-07T08:05:58;41.91;38.27;59.02;;
76382;Laerm;65202;52.520;10.528;2022-12-07T08:08:26;48.48;38.75;63.63;;
76382;Laerm;65202;52.520;10.528;2022-12-07T08:10:53;49.50;39.13;64.27;;
76382;Laerm;65202;52.520;10.528;2022-12-07T08:13:20;49.01;38.59;66.08;;
76382;Laerm;65202;52.520;10.528;2022-12-07T08:15:55;48.82;38.85;65.07;;
76382;Laerm;65202;52.520;10.528;2022-12-07T08:18:22;42.30;38.50;53.29;;
76382;Laerm;65202;52.520;10.528;2022-12-07T08:20:49;42.23;38.10;55.83;;
76382;Laerm;65202;52.520;10.528;2022-12-07T08:23:16;51.02;37.76;62.54;;
76382;Laerm;65202;52.520;10.528;2022-12-07T08:25:44;42.98;38.78;53.14;;
76382;Laerm;65202;52.520;10.528;2022-12-07T08:28:11;51.10;38.67;65.49;;
76382;Laerm;65202;52.520;10.528;2022-12-07T08:30:38;44.41;39.07;61.11;;
76382;Laerm;65202;52.520;10.528;2022-12-07T08:33:05;43.72;38.31;60.70;;
76382;Laerm;65202;52.520;10.528;2022-12-07T08:35:33;49.72;39.17;66.22;;
76382;Laerm;65202;52.520;10.528;2022-12-07T08:38:02;43.08;38.99;51.71;;
76382;Laerm;65202;52.520;10.528;2022-12-07T08:40:30;72.64;39.68;87.70;;
76382;Laerm;65202;52.520;10.528;2022-12-07T08:42:57;78.53;48.54;88.73;;
76382;Laerm;65202;52.520;10.528;2022-12-07T08:45:24;78.64;47.69;95.68;;
76382;Laerm;65202;52.520;10.528;2022-12-07T08:48:02;77.29;63.15;89.85;;
76382;Laerm;65202;52.520;10.528;2022-12-07T08:50:32;63.85;39.53;77.26;;
76382;Laerm;65202;52.520;10.528;2022-12-07T08:53:01;51.11;37.89;74.45;;
76382;Laerm;65202;52.520;10.528;2022-12-07T08:55:29;48.17;38.96;64.51;;
76382;Laerm;65202;52.520;10.528;2022-12-07T08:57:58;45.85;37.88;62.60;;
76382;Laerm;65202;52.520;10.528;2022-12-07T09:00:26;41.99;37.61;50.22;;
76382;Laerm;65202;52.520;10.528;2022-12-07T09:02:54;49.19;38.57;69.59;;
76382;Laerm;65202;52.520;10.528;2022-12-07T09:05:21;41.87;38.40;59.00;;
76382;Laerm;65202;52.520;10.528;2022-12-07T09:07:55;43.73;38.48;54.05;;
76382;Laerm;65202;52.520;10.528;2022-12-07T09:10:24;45.27;38.24;60.25;;
76382;Laerm;65202;52.520;10.528;2022-12-07T09:12:51;41.52;37.79;47.38;;
76382;Laerm;65202;52.520;10.528;2022-12-07T09:15:18;41.65;37.88;46.39;;
76382;Laerm;65202;52.520;10.528;2022-12-07T09:17:46;42.85;37.79;62.77;;
76382;Laerm;65202;52.520;10.528;2022-12-07T09:20:13;47.76;39.39;65.38;;
76382;Laerm;65202;52.520;10.528;2022-12-07T09:22:40;42.69;38.60;53.16;;
76382;Laerm;65202;52.520;10.528;2022-12-07T09:25:07;43.26;38.16;49.00;;
76382;Laerm;65202;52.520;10.528;2022-12-07T09:27:35;48.74;40.60;64.85;;
76382;Laerm;65202;52.520;10.528;2022-12-07T09:30:04;44.46;38.58;56.34;;
76382;Laerm;65202;52.520;10.528;2022-12-07T09:32:32;42.70;39.39;48.03;;
76382;Laerm;65202;52.520;10.528;2022-12-07T09:34:59;48.10;39.31;67.43;;
76382;Laerm;65202;52.520;10.528;2022-12-07T09:37:26;50.32;38.47;59.90;;
76382;Laerm;65202;52.520;10.528;2022-12-07T09:39:54;71.31;55.01;81.64;;
76382;Laerm;65202;52.520;10.528;2022-12-07T09:42:39;66.72;47.61;75.54;;
76382;Laerm;65202;52.520;10.528;2022-12-07T09:45:22;57.69;39.58;65.72;;
76382;Laerm;65202;52.520;10.528;2022-12-07T09:47:51;42.48;38.87;55.62;;
76382;Laerm;65202;52.520;10.528;2022-12-07T09:50:26;47.48;38.65;64.37;;
76382;Laerm;65202;52.520;10.528;2022-12-07T09:53:09;49.93;38.98;65.02;;
76382;Laerm;65202;52.520;10.528;2022-12-07T09:55:38;47.38;38.65;61.45;;
76382;Laerm;65202;52.520;10.528;2022-12-07T09:58:20;44.03;38.73;59.04;;
76382;Laerm;65202;52.520;10.528;2022-12-07T10:00:50;47.83;38.97;68.52;;
76382;Laerm;65202;52.520;10.528;2022-12-07T10:03:19;43.91;39.40;55.62;;
76382;Laerm;65202;52.520;10.528;2022-12-07T10:05:50;48.95;39.84;65.17;;
76382;Laerm;65202;52.520;10.528;2022-12-07T10:08:17;50.55;38.77;70.78;;
76382;Laerm;65202;52.520;10.528;2022-12-07T10:10:50;55.15;40.83;70.04;;
76382;Laerm;65202;52.520;10.528;2022-12-07T10:13:33;42.79;38.48;51.32;;
76382;Laerm;65202;52.520;10.528;2022-12-07T10:16:01;44.63;39.08;59.50;;
76382;Laerm;65202;52.520;10.528;2022-12-07T10:18:39;44.27;38.51;62.74;;
76382;Laerm;65202;52.520;10.528;2022-12-07T10:21:19;43.59;39.66;57.36;;
76382;Laerm;65202;52.520;10.528;2022-12-07T10:24:05;51.63;39.41;70.64;;
76382;Laerm;65202;52.520;10.528;2022-12-07T10:26:36;43.23;37.51;52.73;;
76382;Laerm;65202;52.520;10.528;2022-12-07T10:29:22;44.68;38.84;60.82;;
76382;Laerm;65202;52.520;10.528;2022-12-07T10:32:35;47.63;39.49;67.85;;
76382;Laerm;65202;52.520;10.528;2022-12-07T10:35:30;42.86;39.32;51.08;;
76382;Laerm;65202;52.520;10.528;2022-12-07T10:37:59;43.13;39.58;61.16;;
76382;Laerm;65202;52.520;10.528;2022-12-07T10:40:35;42.77;38.60;52.06;;
76382;Laerm;65202;52.520;10.528;2022-12-07T10:48:59;46.29;39.39;60.56;;
76382;Laerm;65202;52.520;10.528;2022-12-07T11:00:08;42.76;38.42;52.13;;
76382;Laerm;65202;52.520;10.528;2022-12-07T11:03:04;44.64;38.39;58.43;;
76382;Laerm;65202;52.520;10.528;2022-12-07T11:05:52;41.31;37.64;56.77;;
76382;Laerm;65202;52.520;10.528;2022-12-07T11:08:56;45.41;38.53;59.19;;
76382;Laerm;65202;52.520;10.528;2022-12-07T11:11:38;43.02;38.35;53.42;;
76382;Laerm;65202;52.520;10.528;2022-12-07T11:17:42;47.07;39.89;69.01;;
76382;Laerm;65202;52.520;10.528;2022-12-07T11:20:28;48.81;39.46;66.92;;
76382;Laerm;65202;52.520;10.528;2022-12-07T11:23:14;43.65;39.03;53.52;;
76382;Laerm;65202;52.520;10.528;2022-12-07T11:26:07;48.59;38.60;67.70;;
76382;Laerm;65202;52.520;10.528;2022-12-07T11:29:30;48.73;39.14;70.09;;
76382;Laerm;65202;52.520;10.528;2022-12-07T11:32:34;48.01;38.48;73.26;;
76382;Laerm;65202;52.520;10.528;2022-12-07T11:38:53;50.17;38.84;67.97;;
76382;Laerm;65202;52.520;10.528;2022-12-07T11:41:37;44.60;39.22;55.46;;
76382;Laerm;65202;52.520;10.528;2022-12-07T11:44:07;44.83;39.30;62.81;;
76382;Laerm;65202;52.520;10.528;2022-12-07T11:49:43;42.48;37.07;57.02;;
76382;Laerm;65202;52.520;10.528;2022-12-07T11:52:27;42.91;36.98;55.94;;
76382;Laerm;65202;52.520;10.528;2022-12-07T11:54:59;46.92;39.35;66.73;;
76382;Laerm;65202;52.520;10.528;2022-12-07T11:57:43;43.40;38.47;54.48;;
76382;Laerm;65202;52.520;10.528;2022-12-07T12:00:16;46.03;39.89;58.84;;
76382;Laerm;65202;52.520;10.528;2022-12-07T12:02:53;44.99;38.34;72.16;;
76382;Laerm;65202;52.520;10.528;2022-12-07T12:05:26;44.12;38.53;53.97;;
76382;Laerm;65202;52.520;10.528;2022-12-07T12:08:21;48.69;38.59;66.05;;
76382;Laerm;65202;52.520;10.528;2022-12-07T12:15:08;47.78;39.65;67.12;;
76382;Laerm;65202;52.520;10.528;2022-12-07T12:20:58;46.07;39.99;60.01;;
76382;Laerm;65202;52.520;10.528;2022-12-07T12:26:19;45.88;39.91;60.14;;
76382;Laerm;65202;52.520;10.528;2022-12-07T12:31:39;54.53;40.41;69.26;;
76382;Laerm;65202;52.520;10.528;2022-12-07T12:36:59;43.56;38.72;53.05;;
76382;Laerm;65202;52.520;10.528;2022-12-07T12:39:26;47.56;40.45;70.22;;
76382;Laerm;65202;52.520;10.528;2022-12-07T12:41:56;43.29;39.42;56.62;;
76382;Laerm;65202;52.520;10.528;2022-12-07T12:47:01;52.19;39.94;70.88;;
76382;Laerm;65202;52.520;10.528;2022-12-07T12:54:36;47.10;41.76;61.47;;
76382;Laerm;65202;52.520;10.528;2022-12-07T12:57:22;47.93;39.67;62.55;;
76382;Laerm;65202;52.520;10.528;2022-12-07T13:02:39;44.46;37.96;53.57;;
76382;Laerm;65202;52.520;10.528;2022-12-07T13:05:20;47.80;38.52;66.72;;
76382;Laerm;65202;52.520;10.528;2022-12-07T13:11:31;51.58;38.63;70.83;;
76382;Laerm;65202;52.520;10.528;2022-12-07T13:20:07;45.09;40.47;55.03;;
76382;Laerm;65202;52.520;10.528;2022-12-07T13:22:44;47.76;39.81;62.36;;
76382;Laerm;65202;52.520;10.528;2022-12-07T13:25:33;48.51;38.69;72.55;;
76382;Laerm;65202;52.520;10.528;2022-12-07T13:28:16;44.63;39.92;57.44;;
76382;Laerm;65202;52.520;10.528;2022-12-07T13:33:54;47.30;38.85;65.10;;
76382;Laerm;65202;52.520;10.528;2022-12-07T13:36:24;42.90;38.52;62.73;;
76382;Laerm;65202;52.520;10.528;2022-12-07T13:39:21;43.41;38.48;59.40;;
76382;Laerm;65202;52.520;10.528;2022-12-07T13:41:58;49.13;38.65;68.96;;
76382;Laerm;65202;52.520;10.528;2022-12-07T13:44:28;43.19;39.93;60.26;;
76382;Laerm;65202;52.520;10.528;2022-12-07T13:47:10;43.01;39.29;54.95;;
76382;Laerm;65202;52.520;10.528;2022-12-07T13:49:50;47.92;38.40;64.78;;
76382;Laerm;65202;52.520;10.528;2022-12-07T13:52:27;44.85;39.04;61.76;;
76382;Laerm;65202;52.520;10.528;2022-12-07T13:55:01;42.91;38.68;55.86;;
76382;Laerm;65202;52.520;10.528;2022-12-07T13:57:31;48.13;39.15;66.03;;
76382;Laerm;65202;52.520;10.528;2022-12-07T14:00:13;44.18;38.64;60.63;;
76382;Laerm;65202;52.520;10.528;2022-12-07T14:03:01;42.49;38.96;55.76;;
76382;Laerm;65202;52.520;10.528;2022-12-07T14:05:32;52.05;38.64;72.70;;
76382;Laerm;65202;52.520;10.528;2022-12-07T14:08:02;49.47;40.40;66.32;;
76382;Laerm;65202;52.520;10.528;2022-12-07T14:10:39;52.45;42.70;69.74;;
76382;Laerm;65202;52.520;10.528;2022-12-07T14:15:58;45.44;41.74;57.00;;
76382;Laerm;65202;52.520;10.528;2022-12-07T14:18:40;45.73;40.59;61.39;;
76382;Laerm;65202;52.520;10.528;2022-12-07T14:23:39;50.56;39.65;67.31;;
76382;Laerm;65202;52.520;10.528;2022-12-07T14:26:16;46.29;40.82;57.84;;
76382;Laerm;65202;52.520;10.528;2022-12-07T14:28:46;44.52;40.60;60.75;;
76382;Laerm;65202;52.520;10.528;2022-12-07T14:31:18;44.34;40.16;56.40;;
76382;Laerm;65202;52.520;10.528;2022-12-07T14:33:59;48.34;38.77;63.98;;
76382;Laerm;65202;52.520;10.528;2022-12-07T14:36:26;50.16;40.09;65.59;;
76382;Laerm;65202;52.520;10.528;2022-12-07T14:38:54;50.82;38.99;65.73;;
76382;Laerm;65202;52.520;10.528;2022-12-07T14:41:23;52.47;39.21;67.27;;
76382;Laerm;65202;52.520;10.528;2022-12-07T14:44:12;44.16;39.50;67.90;;
76382;Laerm;65202;52.520;10.528;2022-12-07T14:46:59;43.50;38.13;61.79;;
76382;Laerm;65202;52.520;10.528;2022-12-07T14:49:46;50.04;37.97;71.19;;
76382;Laerm;65202;52.520;10.528;2022-12-07T14:52:22;42.47;38.54;53.92;;
76382;Laerm;65202;52.520;10.528;2022-12-07T14:55:30;47.75;39.54;67.05;;
76382;Laerm;65202;52.520;10.528;2022-12-07T14:57:58;52.10;39.59;67.05;;
76382;Laerm;65202;52.520;10.528;2022-12-07T15:00:28;48.54;38.09;75.87;;
76382;Laerm;65202;52.520;10.528;2022-12-07T15:02:56;42.78;38.56;66.28;;
76382;Laerm;65202;52.520;10.528;2022-12-07T15:05:24;46.09;39.29;57.87;;
76382;Laerm;65202;52.520;10.528;2022-12-07T15:07:51;72.76;39.46;96.50;;
76382;Laerm;65202;52.520;10.528;2022-12-07T15:10:24;55.02;42.78;77.18;;
76382;Laerm;65202;52.520;10.528;2022-12-07T15:12:58;74.84;40.49;93.43;;
76382;Laerm;65202;52.520;10.528;2022-12-07T15:15:46;50.33;39.97;63.67;;
76382;Laerm;65202;52.520;10.528;2022-12-07T15:18:15;77.43;42.59;92.13;;
76382;Laerm;65202;52.520;10.528;2022-12-07T15:20:42;50.37;40.87;68.45;;
76382;Laerm;65202;52.520;10.528;2022-12-07T15:23:11;51.30;40.44;80.41;;
76382;Laerm;65202;52.520;10.528;2022-12-07T15:25:48;51.38;41.98;69.45;;
76382;Laerm;65202;52.520;10.528;2022-12-07T15:28:15;50.85;40.78;69.43;;
76382;Laerm;65202;52.520;10.528;2022-12-07T15:30:44;51.16;40.82;67.63;;
76382;Laerm;65202;52.520;10.528;2022-12-07T15:33:13;46.01;39.77;66.41;;
76382;Laerm;65202;52.520;10.528;2022-12-07T15:35:42;48.13;41.17;68.05;;
76382;Laerm;65202;52.520;10.528;2022-12-07T15:38:10;50.58;41.30;69.18;;